sensor_id;sensor_type;location;lat;lon;timestamp;P1;durP1;ratioP1;P2;durP2;ratioP2
75698;SDS011;64313;51.018;13.742;2023-03-11T00:00:24;1.00;;;0.47;;
75698;SDS011;64313;51.018;13.742;2023-03-11T00:02:52;0.63;;;0.40;;
75698;SDS011;64313;51.018;13.742;2023-03-11T00:05:20;0.98;;;0.50;;
75698;SDS011;64313;51.018;13.742;2023-03-11T00:07:46;0.85;;;0.40;;
75698;SDS011;64313;51.018;13.742;2023-03-11T00:15:07;0.95;;;0.40;;
75698;SDS011;64313;51.018;13.742;2023-03-11T00:19:58;1.38;;;0.50;;
75698;SDS011;64313;51.018;13.742;2023-03-11T00:24:49;1.17;;;0.50;;
75698;SDS011;64313;51.018;13.742;2023-03-11T00:29:39;1.43;;;0.67;;
75698;SDS011;64313;51.018;13.742;2023-03-11T00:34:30;3.67;;;0.70;;
75698;SDS011;64313;51.018;13.742;2023-03-11T00:39:21;1.83;;;0.70;;
75698;SDS011;64313;51.018;13.742;2023-03-11T00:41:47;2.00;;;0.50;;
75698;SDS011;64313;51.018;13.742;2023-03-11T00:44:12;1.48;;;0.60;;
75698;SDS011;64313;51.018;13.742;2023-03-11T00:49:04;1.80;;;0.70;;
75698;SDS011;64313;51.018;13.742;2023-03-11T00:53:55;1.25;;;0.60;;
75698;SDS011;64313;51.018;13.742;2023-03-11T00:58:45;1.70;;;0.60;;
75698;SDS011;64313;51.018;13.742;2023-03-11T01:01:12;1.85;;;0.60;;
75698;SDS011;64313;51.018;13.742;2023-03-11T01:03:40;1.48;;;0.75;;
75698;SDS011;64313;51.018;13.742;2023-03-11T01:06:09;1.65;;;0.57;;
75698;SDS011;64313;51.018;13.742;2023-03-11T01:11:00;1.77;;;0.70;;
75698;SDS011;64313;51.018;13.742;2023-03-11T01:15:53;1.63;;;0.60;;
75698;SDS011;64313;51.018;13.742;2023-03-11T01:18:19;1.42;;;0.57;;
75698;SDS011;64313;51.018;13.742;2023-03-11T01:20:45;1.52;;;0.60;;
75698;SDS011;64313;51.018;13.742;2023-03-11T01:23:11;0.85;;;0.50;;
75698;SDS011;64313;51.018;13.742;2023-03-11T01:25:37;1.52;;;0.70;;
75698;SDS011;64313;51.018;13.742;2023-03-11T01:30:29;0.98;;;0.50;;
75698;SDS011;64313;51.018;13.742;2023-03-11T01:32:55;1.55;;;0.60;;
75698;SDS011;64313;51.018;13.742;2023-03-11T01:35:22;1.20;;;0.60;;
75698;SDS011;64313;51.018;13.742;2023-03-11T01:37:48;1.20;;;0.60;;
75698;SDS011;64313;51.018;13.742;2023-03-11T01:40:16;0.88;;;0.45;;
75698;SDS011;64313;51.018;13.742;2023-03-11T01:42:46;1.73;;;0.70;;
75698;SDS011;64313;51.018;13.742;2023-03-11T01:45:25;1.33;;;0.52;;
75698;SDS011;64313;51.018;13.742;2023-03-11T01:47:51;1.98;;;0.88;;
75698;SDS011;64313;51.018;13.742;2023-03-11T01:50:16;1.40;;;0.60;;
75698;SDS011;64313;51.018;13.742;2023-03-11T01:52:42;1.30;;;0.60;;
75698;SDS011;64313;51.018;13.742;2023-03-11T01:55:09;1.88;;;0.70;;
75698;SDS011;64313;51.018;13.742;2023-03-11T01:57:36;1.45;;;0.60;;
75698;SDS011;64313;51.018;13.742;2023-03-11T02:00:06;2.00;;;0.70;;
75698;SDS011;64313;51.018;13.742;2023-03-11T02:02:41;1.73;;;0.73;;
75698;SDS011;64313;51.018;13.742;2023-03-11T02:05:12;1.80;;;0.70;;
75698;SDS011;64313;51.018;13.742;2023-03-11T02:10:05;1.83;;;0.73;;
75698;SDS011;64313;51.018;13.742;2023-03-11T02:12:33;2.42;;;0.75;;
75698;SDS011;64313;51.018;13.742;2023-03-11T02:15:00;1.52;;;0.68;;
75698;SDS011;64313;51.018;13.742;2023-03-11T02:17:27;1.42;;;0.70;;
75698;SDS011;64313;51.018;13.742;2023-03-11T02:19:58;2.28;;;0.90;;
75698;SDS011;64313;51.018;13.742;2023-03-11T02:22:39;1.48;;;0.70;;
75698;SDS011;64313;51.018;13.742;2023-03-11T02:25:19;1.75;;;0.70;;
75698;SDS011;64313;51.018;13.742;2023-03-11T02:27:53;2.20;;;0.80;;
75698;SDS011;64313;51.018;13.742;2023-03-11T02:30:23;1.20;;;0.60;;
75698;SDS011;64313;51.018;13.742;2023-03-11T02:32:51;2.17;;;0.88;;
75698;SDS011;64313;51.018;13.742;2023-03-11T02:35:18;2.35;;;0.85;;
75698;SDS011;64313;51.018;13.742;2023-03-11T02:37:48;2.05;;;0.80;;
75698;SDS011;64313;51.018;13.742;2023-03-11T02:42:53;2.28;;;0.80;;
75698;SDS011;64313;51.018;13.742;2023-03-11T02:45:21;1.75;;;0.73;;
75698;SDS011;64313;51.018;13.742;2023-03-11T02:47:49;2.47;;;0.90;;
75698;SDS011;64313;51.018;13.742;2023-03-11T02:50:16;2.40;;;0.80;;
75698;SDS011;64313;51.018;13.742;2023-03-11T02:52:43;1.67;;;0.77;;
75698;SDS011;64313;51.018;13.742;2023-03-11T02:55:11;1.42;;;0.70;;
75698;SDS011;64313;51.018;13.742;2023-03-11T02:57:38;3.17;;;0.80;;
75698;SDS011;64313;51.018;13.742;2023-03-11T03:00:04;3.63;;;0.82;;
75698;SDS011;64313;51.018;13.742;2023-03-11T03:02:44;2.72;;;1.00;;
75698;SDS011;64313;51.018;13.742;2023-03-11T03:05:11;1.98;;;0.70;;
75698;SDS011;64313;51.018;13.742;2023-03-11T03:07:37;1.77;;;0.65;;
75698;SDS011;64313;51.018;13.742;2023-03-11T03:10:03;2.15;;;0.85;;
75698;SDS011;64313;51.018;13.742;2023-03-11T03:12:29;2.92;;;0.82;;
75698;SDS011;64313;51.018;13.742;2023-03-11T03:14:55;1.30;;;0.60;;
75698;SDS011;64313;51.018;13.742;2023-03-11T03:17:22;1.05;;;0.60;;
75698;SDS011;64313;51.018;13.742;2023-03-11T03:19:48;4.57;;;0.70;;
75698;SDS011;64313;51.018;13.742;2023-03-11T03:22:13;1.63;;;0.80;;
75698;SDS011;64313;51.018;13.742;2023-03-11T03:24:39;1.35;;;0.55;;
75698;SDS011;64313;51.018;13.742;2023-03-11T03:27:05;1.50;;;0.60;;
75698;SDS011;64313;51.018;13.742;2023-03-11T03:29:30;1.67;;;0.70;;
75698;SDS011;64313;51.018;13.742;2023-03-11T03:31:56;1.70;;;0.75;;
75698;SDS011;64313;51.018;13.742;2023-03-11T03:34:21;3.53;;;0.80;;
75698;SDS011;64313;51.018;13.742;2023-03-11T03:36:47;1.73;;;0.80;;
75698;SDS011;64313;51.018;13.742;2023-03-11T03:39:12;2.47;;;0.90;;
75698;SDS011;64313;51.018;13.742;2023-03-11T03:41:38;2.08;;;0.90;;
75698;SDS011;64313;51.018;13.742;2023-03-11T03:44:04;3.63;;;1.00;;
75698;SDS011;64313;51.018;13.742;2023-03-11T03:46:32;2.50;;;1.02;;
75698;SDS011;64313;51.018;13.742;2023-03-11T03:51:24;2.92;;;1.23;;
75698;SDS011;64313;51.018;13.742;2023-03-11T03:54:02;3.03;;;1.30;;
75698;SDS011;64313;51.018;13.742;2023-03-11T03:56:29;3.50;;;1.40;;
75698;SDS011;64313;51.018;13.742;2023-03-11T03:58:54;2.95;;;1.33;;
75698;SDS011;64313;51.018;13.742;2023-03-11T04:01:22;3.13;;;1.35;;
75698;SDS011;64313;51.018;13.742;2023-03-11T04:03:48;3.33;;;1.42;;
75698;SDS011;64313;51.018;13.742;2023-03-11T04:11:21;3.13;;;1.33;;
75698;SDS011;64313;51.018;13.742;2023-03-11T04:13:47;3.47;;;1.50;;
75698;SDS011;64313;51.018;13.742;2023-03-11T04:16:14;3.42;;;1.50;;
75698;SDS011;64313;51.018;13.742;2023-03-11T04:18:44;3.67;;;1.75;;
75698;SDS011;64313;51.018;13.742;2023-03-11T04:21:10;3.30;;;1.55;;
75698;SDS011;64313;51.018;13.742;2023-03-11T04:23:36;3.70;;;1.80;;
75698;SDS011;64313;51.018;13.742;2023-03-11T04:26:03;4.78;;;1.77;;
75698;SDS011;64313;51.018;13.742;2023-03-11T04:28:29;4.07;;;1.83;;
75698;SDS011;64313;51.018;13.742;2023-03-11T04:30:55;4.07;;;1.75;;
75698;SDS011;64313;51.018;13.742;2023-03-11T04:33:20;4.07;;;1.80;;
75698;SDS011;64313;51.018;13.742;2023-03-11T04:35:46;5.03;;;2.00;;
75698;SDS011;64313;51.018;13.742;2023-03-11T04:40:37;2.40;;;1.02;;
75698;SDS011;64313;51.018;13.742;2023-03-11T04:43:02;4.75;;;2.08;;
75698;SDS011;64313;51.018;13.742;2023-03-11T04:45:28;4.55;;;2.10;;
75698;SDS011;64313;51.018;13.742;2023-03-11T04:47:56;4.60;;;2.10;;
75698;SDS011;64313;51.018;13.742;2023-03-11T04:50:21;4.75;;;2.08;;
75698;SDS011;64313;51.018;13.742;2023-03-11T04:52:47;4.65;;;2.20;;
75698;SDS011;64313;51.018;13.742;2023-03-11T04:55:13;4.57;;;2.30;;
75698;SDS011;64313;51.018;13.742;2023-03-11T04:57:40;4.40;;;2.30;;
75698;SDS011;64313;51.018;13.742;2023-03-11T05:00:09;5.07;;;2.25;;
75698;SDS011;64313;51.018;13.742;2023-03-11T05:02:38;5.07;;;2.33;;
75698;SDS011;64313;51.018;13.742;2023-03-11T05:05:04;4.35;;;2.15;;
75698;SDS011;64313;51.018;13.742;2023-03-11T05:07:30;4.70;;;2.17;;
75698;SDS011;64313;51.018;13.742;2023-03-11T05:09:56;4.60;;;2.28;;
75698;SDS011;64313;51.018;13.742;2023-03-11T05:12:22;4.72;;;2.20;;
75698;SDS011;64313;51.018;13.742;2023-03-11T05:14:50;4.57;;;2.28;;
75698;SDS011;64313;51.018;13.742;2023-03-11T05:17:16;4.55;;;2.30;;
75698;SDS011;64313;51.018;13.742;2023-03-11T05:19:44;4.60;;;2.03;;
75698;SDS011;64313;51.018;13.742;2023-03-11T05:22:17;4.72;;;2.00;;
75698;SDS011;64313;51.018;13.742;2023-03-11T05:24:43;5.47;;;2.50;;
75698;SDS011;64313;51.018;13.742;2023-03-11T05:27:08;4.85;;;2.40;;
75698;SDS011;64313;51.018;13.742;2023-03-11T05:29:35;4.95;;;2.33;;
75698;SDS011;64313;51.018;13.742;2023-03-11T05:32:01;5.05;;;2.33;;
75698;SDS011;64313;51.018;13.742;2023-03-11T05:34:27;4.95;;;2.42;;
75698;SDS011;64313;51.018;13.742;2023-03-11T05:36:52;4.95;;;2.13;;
75698;SDS011;64313;51.018;13.742;2023-03-11T05:39:18;4.93;;;2.55;;
75698;SDS011;64313;51.018;13.742;2023-03-11T05:41:43;5.22;;;2.70;;
75698;SDS011;64313;51.018;13.742;2023-03-11T05:44:09;5.78;;;2.63;;
75698;SDS011;64313;51.018;13.742;2023-03-11T05:46:34;4.85;;;2.20;;
75698;SDS011;64313;51.018;13.742;2023-03-11T05:49:01;5.22;;;2.50;;
75698;SDS011;64313;51.018;13.742;2023-03-11T05:51:26;5.20;;;2.63;;
75698;SDS011;64313;51.018;13.742;2023-03-11T05:53:52;5.47;;;2.45;;
75698;SDS011;64313;51.018;13.742;2023-03-11T05:56:25;5.32;;;2.45;;
75698;SDS011;64313;51.018;13.742;2023-03-11T05:58:52;6.20;;;2.95;;
75698;SDS011;64313;51.018;13.742;2023-03-11T06:01:18;5.70;;;3.13;;
75698;SDS011;64313;51.018;13.742;2023-03-11T06:03:45;5.18;;;2.90;;
75698;SDS011;64313;51.018;13.742;2023-03-11T06:06:10;5.35;;;2.92;;
75698;SDS011;64313;51.018;13.742;2023-03-11T06:08:37;6.40;;;3.17;;
75698;SDS011;64313;51.018;13.742;2023-03-11T06:11:04;5.78;;;3.08;;
75698;SDS011;64313;51.018;13.742;2023-03-11T06:13:35;7.47;;;3.33;;
75698;SDS011;64313;51.018;13.742;2023-03-11T06:16:01;5.72;;;3.30;;
75698;SDS011;64313;51.018;13.742;2023-03-11T06:18:27;6.85;;;3.47;;
75698;SDS011;64313;51.018;13.742;2023-03-11T06:20:53;7.30;;;3.60;;
75698;SDS011;64313;51.018;13.742;2023-03-11T06:23:21;6.28;;;3.50;;
75698;SDS011;64313;51.018;13.742;2023-03-11T06:26:03;5.95;;;3.30;;
75698;SDS011;64313;51.018;13.742;2023-03-11T06:28:34;6.65;;;3.70;;
75698;SDS011;64313;51.018;13.742;2023-03-11T06:31:09;7.32;;;3.88;;
75698;SDS011;64313;51.018;13.742;2023-03-11T06:33:46;6.38;;;3.60;;
75698;SDS011;64313;51.018;13.742;2023-03-11T06:36:13;6.88;;;3.75;;
75698;SDS011;64313;51.018;13.742;2023-03-11T06:38:40;6.75;;;3.70;;
75698;SDS011;64313;51.018;13.742;2023-03-11T06:41:06;6.90;;;3.65;;
75698;SDS011;64313;51.018;13.742;2023-03-11T06:43:34;6.90;;;3.65;;
75698;SDS011;64313;51.018;13.742;2023-03-11T06:46:06;7.60;;;4.13;;
75698;SDS011;64313;51.018;13.742;2023-03-11T06:48:42;8.05;;;3.85;;
75698;SDS011;64313;51.018;13.742;2023-03-11T06:51:10;7.25;;;3.80;;
75698;SDS011;64313;51.018;13.742;2023-03-11T06:53:35;6.88;;;3.92;;
75698;SDS011;64313;51.018;13.742;2023-03-11T06:56:08;7.10;;;3.85;;
75698;SDS011;64313;51.018;13.742;2023-03-11T06:58:42;8.00;;;4.18;;
75698;SDS011;64313;51.018;13.742;2023-03-11T07:01:11;7.50;;;4.20;;
75698;SDS011;64313;51.018;13.742;2023-03-11T07:03:38;7.90;;;4.10;;
75698;SDS011;64313;51.018;13.742;2023-03-11T07:06:03;7.93;;;4.32;;
75698;SDS011;64313;51.018;13.742;2023-03-11T07:11:00;7.80;;;4.18;;
75698;SDS011;64313;51.018;13.742;2023-03-11T07:13:31;8.23;;;4.32;;
75698;SDS011;64313;51.018;13.742;2023-03-11T07:16:01;7.82;;;3.85;;
75698;SDS011;64313;51.018;13.742;2023-03-11T07:18:28;8.93;;;4.88;;
75698;SDS011;64313;51.018;13.742;2023-03-11T07:20:55;7.78;;;4.03;;
75698;SDS011;64313;51.018;13.742;2023-03-11T07:23:20;7.93;;;4.32;;
75698;SDS011;64313;51.018;13.742;2023-03-11T07:25:46;7.85;;;4.28;;
75698;SDS011;64313;51.018;13.742;2023-03-11T07:28:12;10.30;;;4.68;;
75698;SDS011;64313;51.018;13.742;2023-03-11T07:30:37;7.57;;;4.47;;
75698;SDS011;64313;51.018;13.742;2023-03-11T07:33:04;8.75;;;4.50;;
75698;SDS011;64313;51.018;13.742;2023-03-11T07:35:30;7.53;;;4.32;;
75698;SDS011;64313;51.018;13.742;2023-03-11T07:37:55;9.73;;;4.28;;
75698;SDS011;64313;51.018;13.742;2023-03-11T07:40:20;7.95;;;4.30;;
75698;SDS011;64313;51.018;13.742;2023-03-11T07:42:46;9.45;;;4.22;;
75698;SDS011;64313;51.018;13.742;2023-03-11T07:45:11;7.60;;;4.10;;
75698;SDS011;64313;51.018;13.742;2023-03-11T07:47:36;7.93;;;4.40;;
75698;SDS011;64313;51.018;13.742;2023-03-11T07:50:02;8.50;;;4.35;;
75698;SDS011;64313;51.018;13.742;2023-03-11T07:52:30;8.85;;;4.43;;
75698;SDS011;64313;51.018;13.742;2023-03-11T07:54:56;8.05;;;4.43;;
75698;SDS011;64313;51.018;13.742;2023-03-11T07:57:22;8.02;;;4.32;;
75698;SDS011;64313;51.018;13.742;2023-03-11T07:59:47;9.60;;;5.03;;
75698;SDS011;64313;51.018;13.742;2023-03-11T08:02:13;7.95;;;3.95;;
75698;SDS011;64313;51.018;13.742;2023-03-11T08:04:38;9.25;;;4.70;;
75698;SDS011;64313;51.018;13.742;2023-03-11T08:07:03;8.13;;;4.22;;
75698;SDS011;64313;51.018;13.742;2023-03-11T08:09:29;9.38;;;4.60;;
75698;SDS011;64313;51.018;13.742;2023-03-11T08:11:54;8.68;;;4.57;;
75698;SDS011;64313;51.018;13.742;2023-03-11T08:14:19;7.80;;;4.45;;
75698;SDS011;64313;51.018;13.742;2023-03-11T08:16:45;8.63;;;4.78;;
75698;SDS011;64313;51.018;13.742;2023-03-11T08:19:10;8.70;;;4.57;;
75698;SDS011;64313;51.018;13.742;2023-03-11T08:21:36;7.82;;;4.30;;
75698;SDS011;64313;51.018;13.742;2023-03-11T08:24:02;8.70;;;4.32;;
75698;SDS011;64313;51.018;13.742;2023-03-11T08:26:28;8.07;;;4.68;;
75698;SDS011;64313;51.018;13.742;2023-03-11T08:28:55;9.20;;;4.63;;
75698;SDS011;64313;51.018;13.742;2023-03-11T08:31:25;9.57;;;4.72;;
75698;SDS011;64313;51.018;13.742;2023-03-11T08:33:53;9.15;;;4.70;;
75698;SDS011;64313;51.018;13.742;2023-03-11T08:36:22;7.65;;;3.67;;
75698;SDS011;64313;51.018;13.742;2023-03-11T08:38:48;8.68;;;4.43;;
75698;SDS011;64313;51.018;13.742;2023-03-11T08:41:13;9.00;;;4.95;;
75698;SDS011;64313;51.018;13.742;2023-03-11T08:43:39;8.60;;;4.07;;
75698;SDS011;64313;51.018;13.742;2023-03-11T08:46:06;8.02;;;4.50;;
75698;SDS011;64313;51.018;13.742;2023-03-11T08:48:32;8.80;;;4.55;;
75698;SDS011;64313;51.018;13.742;2023-03-11T08:50:58;8.48;;;5.00;;
75698;SDS011;64313;51.018;13.742;2023-03-11T08:53:24;8.20;;;4.40;;
75698;SDS011;64313;51.018;13.742;2023-03-11T08:55:50;8.45;;;4.78;;
75698;SDS011;64313;51.018;13.742;2023-03-11T08:58:16;8.82;;;4.53;;
75698;SDS011;64313;51.018;13.742;2023-03-11T09:03:07;8.07;;;4.40;;
75698;SDS011;64313;51.018;13.742;2023-03-11T09:07:59;7.80;;;3.85;;
75698;SDS011;64313;51.018;13.742;2023-03-11T09:10:24;8.02;;;4.00;;
75698;SDS011;64313;51.018;13.742;2023-03-11T09:12:50;8.18;;;4.53;;
75698;SDS011;64313;51.018;13.742;2023-03-11T09:15:15;9.48;;;4.30;;
75698;SDS011;64313;51.018;13.742;2023-03-11T09:17:40;7.60;;;4.15;;
75698;SDS011;64313;51.018;13.742;2023-03-11T09:20:06;7.95;;;4.30;;
75698;SDS011;64313;51.018;13.742;2023-03-11T09:22:32;7.22;;;3.85;;
75698;SDS011;64313;51.018;13.742;2023-03-11T09:24:57;9.13;;;4.97;;
75698;SDS011;64313;51.018;13.742;2023-03-11T09:27:22;8.15;;;3.78;;
75698;SDS011;64313;51.018;13.742;2023-03-11T09:29:48;8.32;;;4.18;;
75698;SDS011;64313;51.018;13.742;2023-03-11T09:32:13;9.93;;;4.78;;
75698;SDS011;64313;51.018;13.742;2023-03-11T09:34:42;8.38;;;4.18;;
75698;SDS011;64313;51.018;13.742;2023-03-11T09:37:19;9.00;;;4.53;;
75698;SDS011;64313;51.018;13.742;2023-03-11T09:39:44;7.70;;;3.92;;
75698;SDS011;64313;51.018;13.742;2023-03-11T09:42:19;8.30;;;4.28;;
75698;SDS011;64313;51.018;13.742;2023-03-11T09:48:16;8.13;;;3.95;;
75698;SDS011;64313;51.018;13.742;2023-03-11T09:54:10;7.53;;;4.15;;
75698;SDS011;64313;51.018;13.742;2023-03-11T09:56:42;8.27;;;4.57;;
75698;SDS011;64313;51.018;13.742;2023-03-11T09:59:12;7.90;;;4.25;;
75698;SDS011;64313;51.018;13.742;2023-03-11T10:01:47;6.75;;;3.90;;
75698;SDS011;64313;51.018;13.742;2023-03-11T10:07:44;9.65;;;3.75;;
75698;SDS011;64313;51.018;13.742;2023-03-11T10:10:27;6.63;;;3.90;;
75698;SDS011;64313;51.018;13.742;2023-03-11T10:13:10;7.22;;;4.10;;
75698;SDS011;64313;51.018;13.742;2023-03-11T10:21:33;6.80;;;3.78;;
75698;SDS011;64313;51.018;13.742;2023-03-11T10:24:13;7.20;;;4.25;;
75698;SDS011;64313;51.018;13.742;2023-03-11T10:26:47;8.43;;;4.68;;
75698;SDS011;64313;51.018;13.742;2023-03-11T10:30:02;8.82;;;4.68;;
75698;SDS011;64313;51.018;13.742;2023-03-11T10:32:16;7.70;;;3.92;;
75698;SDS011;64313;51.018;13.742;2023-03-11T10:34:56;7.93;;;4.00;;
75698;SDS011;64313;51.018;13.742;2023-03-11T10:37:36;6.82;;;4.13;;
75698;SDS011;64313;51.018;13.742;2023-03-11T10:40:21;7.63;;;4.15;;
75698;SDS011;64313;51.018;13.742;2023-03-11T10:42:54;8.18;;;4.78;;
75698;SDS011;64313;51.018;13.742;2023-03-11T10:45:23;8.05;;;4.68;;
75698;SDS011;64313;51.018;13.742;2023-03-11T10:47:51;7.78;;;4.45;;
75698;SDS011;64313;51.018;13.742;2023-03-11T10:50:17;7.05;;;3.85;;
75698;SDS011;64313;51.018;13.742;2023-03-11T10:53:02;7.40;;;4.10;;
75698;SDS011;64313;51.018;13.742;2023-03-11T10:55:33;9.50;;;4.75;;
75698;SDS011;64313;51.018;13.742;2023-03-11T10:58:06;7.95;;;4.10;;
75698;SDS011;64313;51.018;13.742;2023-03-11T11:00:36;8.00;;;4.15;;
75698;SDS011;64313;51.018;13.742;2023-03-11T11:03:01;8.27;;;3.75;;
75698;SDS011;64313;51.018;13.742;2023-03-11T11:05:32;7.93;;;4.10;;
75698;SDS011;64313;51.018;13.742;2023-03-11T11:08:32;8.52;;;4.10;;
75698;SDS011;64313;51.018;13.742;2023-03-11T11:11:01;9.07;;;4.10;;
75698;SDS011;64313;51.018;13.742;2023-03-11T11:13:29;8.10;;;4.07;;
75698;SDS011;64313;51.018;13.742;2023-03-11T11:18:26;6.80;;;4.25;;
75698;SDS011;64313;51.018;13.742;2023-03-11T11:20:59;6.20;;;3.58;;
75698;SDS011;64313;51.018;13.742;2023-03-11T11:23:49;7.57;;;3.33;;
75698;SDS011;64313;51.018;13.742;2023-03-11T11:31:33;6.55;;;3.33;;
75698;SDS011;64313;51.018;13.742;2023-03-11T11:34:00;8.40;;;3.75;;
75698;SDS011;64313;51.018;13.742;2023-03-11T11:36:29;7.93;;;3.75;;
75698;SDS011;64313;51.018;13.742;2023-03-11T11:38:58;6.93;;;3.58;;
75698;SDS011;64313;51.018;13.742;2023-03-11T11:41:27;7.00;;;3.92;;
75698;SDS011;64313;51.018;13.742;2023-03-11T11:43:56;6.88;;;3.22;;
75698;SDS011;64313;51.018;13.742;2023-03-11T11:46:26;6.78;;;3.30;;
75698;SDS011;64313;51.018;13.742;2023-03-11T11:49:12;7.28;;;3.10;;
75698;SDS011;64313;51.018;13.742;2023-03-11T11:54:51;7.38;;;3.33;;
75698;SDS011;64313;51.018;13.742;2023-03-11T11:57:22;8.30;;;3.67;;
75698;SDS011;64313;51.018;13.742;2023-03-11T12:05:22;7.18;;;3.47;;
75698;SDS011;64313;51.018;13.742;2023-03-11T12:07:59;7.30;;;3.53;;
75698;SDS011;64313;51.018;13.742;2023-03-11T12:10:41;7.40;;;3.60;;
75698;SDS011;64313;51.018;13.742;2023-03-11T12:13:34;7.60;;;3.53;;
75698;SDS011;64313;51.018;13.742;2023-03-11T12:19:15;7.85;;;3.38;;
75698;SDS011;64313;51.018;13.742;2023-03-11T12:22:11;5.40;;;2.65;;
75698;SDS011;64313;51.018;13.742;2023-03-11T12:25:19;8.07;;;3.03;;
75698;SDS011;64313;51.018;13.742;2023-03-11T12:27:50;6.43;;;3.03;;
75698;SDS011;64313;51.018;13.742;2023-03-11T12:30:24;7.55;;;2.97;;
75698;SDS011;64313;51.018;13.742;2023-03-11T12:33:00;8.32;;;3.20;;
75698;SDS011;64313;51.018;13.742;2023-03-11T12:35:33;7.72;;;3.60;;
75698;SDS011;64313;51.018;13.742;2023-03-11T12:43:25;9.82;;;3.90;;
75698;SDS011;64313;51.018;13.742;2023-03-11T12:45:55;8.60;;;4.07;;
75698;SDS011;64313;51.018;13.742;2023-03-11T12:48:24;6.97;;;3.03;;
75698;SDS011;64313;51.018;13.742;2023-03-11T12:50:59;6.70;;;3.00;;
75698;SDS011;64313;51.018;13.742;2023-03-11T12:53:42;6.85;;;3.20;;
75698;SDS011;64313;51.018;13.742;2023-03-11T12:56:22;6.57;;;2.83;;
75698;SDS011;64313;51.018;13.742;2023-03-11T13:10:18;6.63;;;2.95;;
75698;SDS011;64313;51.018;13.742;2023-03-11T13:12:57;6.43;;;3.05;;
75698;SDS011;64313;51.018;13.742;2023-03-11T13:15:28;6.72;;;3.25;;
75698;SDS011;64313;51.018;13.742;2023-03-11T13:17:59;6.95;;;3.10;;
75698;SDS011;64313;51.018;13.742;2023-03-11T13:20:40;8.00;;;4.07;;
75698;SDS011;64313;51.018;13.742;2023-03-11T13:23:07;5.68;;;2.95;;
75698;SDS011;64313;51.018;13.742;2023-03-11T13:25:37;6.65;;;3.40;;
75698;SDS011;64313;51.018;13.742;2023-03-11T13:34:16;7.10;;;3.15;;
75698;SDS011;64313;51.018;13.742;2023-03-11T13:37:08;7.15;;;3.20;;
75698;SDS011;64313;51.018;13.742;2023-03-11T13:40:01;8.27;;;3.13;;
75698;SDS011;64313;51.018;13.742;2023-03-11T13:42:42;6.20;;;3.05;;
75698;SDS011;64313;51.018;13.742;2023-03-11T13:45:17;5.60;;;2.75;;
75698;SDS011;64313;51.018;13.742;2023-03-11T13:47:55;6.38;;;2.85;;
75698;SDS011;64313;51.018;13.742;2023-03-11T13:50:33;7.72;;;2.85;;
75698;SDS011;64313;51.018;13.742;2023-03-11T13:53:01;4.88;;;2.53;;
75698;SDS011;64313;51.018;13.742;2023-03-11T13:55:38;6.15;;;3.22;;
75698;SDS011;64313;51.018;13.742;2023-03-11T13:58:19;6.82;;;3.53;;
75698;SDS011;64313;51.018;13.742;2023-03-11T14:03:18;5.63;;;2.38;;
75698;SDS011;64313;51.018;13.742;2023-03-11T14:05:47;6.03;;;2.85;;
75698;SDS011;64313;51.018;13.742;2023-03-11T14:08:30;5.32;;;2.42;;
75698;SDS011;64313;51.018;13.742;2023-03-11T14:11:02;5.93;;;2.92;;
75698;SDS011;64313;51.018;13.742;2023-03-11T14:16:07;5.97;;;2.85;;
75698;SDS011;64313;51.018;13.742;2023-03-11T14:18:42;5.78;;;2.50;;
75698;SDS011;64313;51.018;13.742;2023-03-11T14:21:14;5.88;;;2.67;;
75698;SDS011;64313;51.018;13.742;2023-03-11T14:23:43;5.63;;;2.63;;
75698;SDS011;64313;51.018;13.742;2023-03-11T14:26:13;5.28;;;2.47;;
75698;SDS011;64313;51.018;13.742;2023-03-11T14:28:52;6.05;;;2.88;;
75698;SDS011;64313;51.018;13.742;2023-03-11T14:31:23;5.45;;;2.33;;
75698;SDS011;64313;51.018;13.742;2023-03-11T14:33:59;5.00;;;2.70;;
75698;SDS011;64313;51.018;13.742;2023-03-11T14:44:54;6.50;;;2.58;;
75698;SDS011;64313;51.018;13.742;2023-03-11T14:47:31;6.05;;;2.75;;
75698;SDS011;64313;51.018;13.742;2023-03-11T14:50:20;6.20;;;2.90;;
75698;SDS011;64313;51.018;13.742;2023-03-11T14:52:52;6.15;;;2.88;;
75698;SDS011;64313;51.018;13.742;2023-03-11T14:55:29;6.45;;;2.50;;
75698;SDS011;64313;51.018;13.742;2023-03-11T14:58:10;6.20;;;2.70;;
75698;SDS011;64313;51.018;13.742;2023-03-11T15:00:48;6.82;;;2.85;;
75698;SDS011;64313;51.018;13.742;2023-03-11T15:03:23;8.93;;;2.90;;
75698;SDS011;64313;51.018;13.742;2023-03-11T15:05:57;6.07;;;2.88;;
75698;SDS011;64313;51.018;13.742;2023-03-11T15:08:27;5.55;;;2.53;;
75698;SDS011;64313;51.018;13.742;2023-03-11T15:11:01;6.25;;;3.00;;
75698;SDS011;64313;51.018;13.742;2023-03-11T15:13:27;5.40;;;2.50;;
75698;SDS011;64313;51.018;13.742;2023-03-11T15:16:00;5.88;;;2.65;;
75698;SDS011;64313;51.018;13.742;2023-03-11T15:18:29;5.60;;;2.63;;
75698;SDS011;64313;51.018;13.742;2023-03-11T15:21:03;7.10;;;3.15;;
75698;SDS011;64313;51.018;13.742;2023-03-11T15:23:32;7.38;;;2.80;;
75698;SDS011;64313;51.018;13.742;2023-03-11T15:26:00;5.65;;;2.80;;
75698;SDS011;64313;51.018;13.742;2023-03-11T15:28:30;7.55;;;2.97;;
75698;SDS011;64313;51.018;13.742;2023-03-11T15:31:16;5.78;;;2.42;;
75698;SDS011;64313;51.018;13.742;2023-03-11T15:33:55;5.82;;;2.45;;
75698;SDS011;64313;51.018;13.742;2023-03-11T15:36:32;6.15;;;2.67;;
75698;SDS011;64313;51.018;13.742;2023-03-11T15:39:14;6.45;;;2.60;;
75698;SDS011;64313;51.018;13.742;2023-03-11T15:41:42;6.03;;;2.75;;
75698;SDS011;64313;51.018;13.742;2023-03-11T15:44:21;5.65;;;2.63;;
75698;SDS011;64313;51.018;13.742;2023-03-11T15:46:50;6.85;;;2.63;;
75698;SDS011;64313;51.018;13.742;2023-03-11T15:49:17;5.30;;;2.67;;
75698;SDS011;64313;51.018;13.742;2023-03-11T15:51:42;5.93;;;2.70;;
75698;SDS011;64313;51.018;13.742;2023-03-11T15:54:07;5.60;;;2.83;;
75698;SDS011;64313;51.018;13.742;2023-03-11T15:56:33;5.93;;;2.50;;
75698;SDS011;64313;51.018;13.742;2023-03-11T16:01:24;5.78;;;2.40;;
75698;SDS011;64313;51.018;13.742;2023-03-11T16:03:55;6.28;;;2.33;;
75698;SDS011;64313;51.018;13.742;2023-03-11T16:06:21;6.78;;;2.70;;
75698;SDS011;64313;51.018;13.742;2023-03-11T16:08:47;7.10;;;3.03;;
75698;SDS011;64313;51.018;13.742;2023-03-11T16:11:13;5.90;;;2.80;;
75698;SDS011;64313;51.018;13.742;2023-03-11T16:13:38;6.40;;;3.05;;
75698;SDS011;64313;51.018;13.742;2023-03-11T16:16:04;6.97;;;3.03;;
75698;SDS011;64313;51.018;13.742;2023-03-11T16:18:30;7.10;;;2.70;;
75698;SDS011;64313;51.018;13.742;2023-03-11T16:23:22;7.07;;;2.85;;
75698;SDS011;64313;51.018;13.742;2023-03-11T16:26:00;5.30;;;2.70;;
75698;SDS011;64313;51.018;13.742;2023-03-11T16:28:27;6.90;;;2.80;;
75698;SDS011;64313;51.018;13.742;2023-03-11T16:30:53;6.45;;;2.75;;
75698;SDS011;64313;51.018;13.742;2023-03-11T16:33:18;5.97;;;2.63;;
75698;SDS011;64313;51.018;13.742;2023-03-11T16:35:44;6.15;;;2.70;;
75698;SDS011;64313;51.018;13.742;2023-03-11T16:40:35;7.03;;;2.78;;
75698;SDS011;64313;51.018;13.742;2023-03-11T16:43:02;6.78;;;2.63;;
75698;SDS011;64313;51.018;13.742;2023-03-11T16:45:29;5.78;;;2.58;;
75698;SDS011;64313;51.018;13.742;2023-03-11T16:47:55;6.82;;;2.65;;
75698;SDS011;64313;51.018;13.742;2023-03-11T16:50:20;5.53;;;2.60;;
75698;SDS011;64313;51.018;13.742;2023-03-11T16:52:48;5.65;;;2.85;;
75698;SDS011;64313;51.018;13.742;2023-03-11T16:55:14;5.82;;;2.90;;
75698;SDS011;64313;51.018;13.742;2023-03-11T16:57:40;5.85;;;2.78;;
75698;SDS011;64313;51.018;13.742;2023-03-11T17:00:12;5.40;;;2.50;;